sensor_id;sensor_type;location;lat;lon;timestamp;P1;durP1;ratioP1;P2;durP2;ratioP2
8665;SDS011;4370;48.916;8.380;2022-11-20T00:00:57;19.53;;;11.90;;
8665;SDS011;4370;48.916;8.380;2022-11-20T00:03:53;19.70;;;11.90;;
8665;SDS011;4370;48.916;8.380;2022-11-20T00:06:21;18.77;;;11.03;;
8665;SDS011;4370;48.916;8.380;2022-11-20T00:08:48;15.57;;;10.93;;
8665;SDS011;4370;48.916;8.380;2022-11-20T00:11:15;15.83;;;11.17;;
8665;SDS011;4370;48.916;8.380;2022-11-20T00:13:44;21.70;;;13.23;;
8665;SDS011;4370;48.916;8.380;2022-11-20T00:16:12;21.17;;;13.03;;
8665;SDS011;4370;48.916;8.380;2022-11-20T00:18:39;19.57;;;12.77;;
8665;SDS011;4370;48.916;8.380;2022-11-20T00:21:09;21.60;;;13.60;;
8665;SDS011;4370;48.916;8.380;2022-11-20T00:23:37;19.10;;;12.67;;
8665;SDS011;4370;48.916;8.380;2022-11-20T00:26:03;23.43;;;13.53;;
8665;SDS011;4370;48.916;8.380;2022-11-20T00:28:31;21.50;;;14.17;;
8665;SDS011;4370;48.916;8.380;2022-11-20T00:31:04;18.33;;;13.10;;
8665;SDS011;4370;48.916;8.380;2022-11-20T00:33:34;21.57;;;13.97;;
8665;SDS011;4370;48.916;8.380;2022-11-20T00:36:01;25.17;;;15.70;;
8665;SDS011;4370;48.916;8.380;2022-11-20T00:38:28;21.17;;;13.70;;
8665;SDS011;4370;48.916;8.380;2022-11-20T00:40:58;21.37;;;13.53;;
8665;SDS011;4370;48.916;8.380;2022-11-20T00:43:25;22.20;;;14.07;;
8665;SDS011;4370;48.916;8.380;2022-11-20T00:48:28;23.40;;;15.00;;
8665;SDS011;4370;48.916;8.380;2022-11-20T00:50:54;19.27;;;13.20;;
8665;SDS011;4370;48.916;8.380;2022-11-20T00:53:20;20.47;;;12.67;;
8665;SDS011;4370;48.916;8.380;2022-11-20T00:56:19;24.03;;;14.90;;
8665;SDS011;4370;48.916;8.380;2022-11-20T00:58:40;18.77;;;12.80;;
8665;SDS011;4370;48.916;8.380;2022-11-20T01:01:18;17.97;;;12.03;;
8665;SDS011;4370;48.916;8.380;2022-11-20T01:03:46;16.33;;;11.50;;
8665;SDS011;4370;48.916;8.380;2022-11-20T01:06:17;17.43;;;11.30;;
8665;SDS011;4370;48.916;8.380;2022-11-20T01:08:47;16.60;;;11.80;;
8665;SDS011;4370;48.916;8.380;2022-11-20T01:11:16;16.13;;;10.87;;
8665;SDS011;4370;48.916;8.380;2022-11-20T01:13:48;15.20;;;9.70;;
8665;SDS011;4370;48.916;8.380;2022-11-20T01:16:16;18.07;;;10.07;;
8665;SDS011;4370;48.916;8.380;2022-11-20T01:18:45;12.57;;;9.07;;
8665;SDS011;4370;48.916;8.380;2022-11-20T01:21:22;11.80;;;8.30;;
8665;SDS011;4370;48.916;8.380;2022-11-20T01:23:50;11.47;;;8.63;;
8665;SDS011;4370;48.916;8.380;2022-11-20T01:26:17;12.23;;;8.13;;
8665;SDS011;4370;48.916;8.380;2022-11-20T01:28:45;11.00;;;8.13;;
8665;SDS011;4370;48.916;8.380;2022-11-20T01:31:18;13.97;;;8.30;;
8665;SDS011;4370;48.916;8.380;2022-11-20T01:33:50;10.40;;;8.07;;
8665;SDS011;4370;48.916;8.380;2022-11-20T01:36:17;9.97;;;7.57;;
8665;SDS011;4370;48.916;8.380;2022-11-20T01:38:45;10.53;;;7.93;;
8665;SDS011;4370;48.916;8.380;2022-11-20T01:41:12;10.47;;;8.23;;
8665;SDS011;4370;48.916;8.380;2022-11-20T01:43:59;10.40;;;7.73;;
8665;SDS011;4370;48.916;8.380;2022-11-20T01:46:25;9.37;;;7.30;;
8665;SDS011;4370;48.916;8.380;2022-11-20T01:54:15;9.53;;;6.97;;
8665;SDS011;4370;48.916;8.380;2022-11-20T01:56:46;9.80;;;6.80;;
8665;SDS011;4370;48.916;8.380;2022-11-20T01:59:17;11.57;;;7.33;;
8665;SDS011;4370;48.916;8.380;2022-11-20T02:01:43;9.47;;;6.87;;
8665;SDS011;4370;48.916;8.380;2022-11-20T02:04:09;8.50;;;6.80;;
8665;SDS011;4370;48.916;8.380;2022-11-20T02:06:36;9.73;;;6.00;;
8665;SDS011;4370;48.916;8.380;2022-11-20T02:09:24;8.17;;;6.20;;
8665;SDS011;4370;48.916;8.380;2022-11-20T02:11:50;7.97;;;5.73;;
8665;SDS011;4370;48.916;8.380;2022-11-20T02:14:16;9.90;;;6.10;;
8665;SDS011;4370;48.916;8.380;2022-11-20T02:16:46;7.50;;;5.47;;
8665;SDS011;4370;48.916;8.380;2022-11-20T02:19:16;9.00;;;5.70;;
8665;SDS011;4370;48.916;8.380;2022-11-20T02:24:19;8.93;;;5.87;;
8665;SDS011;4370;48.916;8.380;2022-11-20T02:26:51;7.23;;;5.77;;
8665;SDS011;4370;48.916;8.380;2022-11-20T02:29:45;9.17;;;5.77;;
8665;SDS011;4370;48.916;8.380;2022-11-20T02:32:21;9.30;;;5.93;;
8665;SDS011;4370;48.916;8.380;2022-11-20T02:34:49;7.07;;;5.33;;
8665;SDS011;4370;48.916;8.380;2022-11-20T02:37:15;6.30;;;5.30;;
8665;SDS011;4370;48.916;8.380;2022-11-20T02:39:41;8.13;;;5.23;;
8665;SDS011;4370;48.916;8.380;2022-11-20T02:42:09;5.43;;;4.53;;
8665;SDS011;4370;48.916;8.380;2022-11-20T02:44:35;6.80;;;5.07;;
8665;SDS011;4370;48.916;8.380;2022-11-20T02:47:01;6.10;;;4.90;;
8665;SDS011;4370;48.916;8.380;2022-11-20T02:49:27;6.33;;;5.10;;
8665;SDS011;4370;48.916;8.380;2022-11-20T02:51:53;5.77;;;4.47;;
8665;SDS011;4370;48.916;8.380;2022-11-20T02:54:19;8.23;;;4.53;;
8665;SDS011;4370;48.916;8.380;2022-11-20T02:56:45;5.53;;;4.27;;
8665;SDS011;4370;48.916;8.380;2022-11-20T02:59:11;5.20;;;4.33;;
8665;SDS011;4370;48.916;8.380;2022-11-20T03:01:37;8.80;;;5.23;;
8665;SDS011;4370;48.916;8.380;2022-11-20T03:04:03;6.93;;;4.87;;
8665;SDS011;4370;48.916;8.380;2022-11-20T03:06:29;6.37;;;4.43;;
8665;SDS011;4370;48.916;8.380;2022-11-20T03:08:55;5.27;;;4.40;;
8665;SDS011;4370;48.916;8.380;2022-11-20T03:11:21;6.77;;;4.47;;
8665;SDS011;4370;48.916;8.380;2022-11-20T03:13:47;11.17;;;5.03;;
8665;SDS011;4370;48.916;8.380;2022-11-20T03:16:14;7.67;;;4.80;;
8665;SDS011;4370;48.916;8.380;2022-11-20T03:18:42;5.73;;;4.00;;
8665;SDS011;4370;48.916;8.380;2022-11-20T03:21:08;6.60;;;4.70;;
8665;SDS011;4370;48.916;8.380;2022-11-20T03:23:35;6.73;;;4.80;;
8665;SDS011;4370;48.916;8.380;2022-11-20T03:28:41;6.47;;;4.70;;
8665;SDS011;4370;48.916;8.380;2022-11-20T03:31:12;5.70;;;4.43;;
8665;SDS011;4370;48.916;8.380;2022-11-20T03:33:39;6.87;;;5.00;;
8665;SDS011;4370;48.916;8.380;2022-11-20T03:36:07;6.37;;;3.90;;
8665;SDS011;4370;48.916;8.380;2022-11-20T03:38:34;4.77;;;4.27;;
8665;SDS011;4370;48.916;8.380;2022-11-20T03:41:01;6.60;;;4.30;;
8665;SDS011;4370;48.916;8.380;2022-11-20T03:43:28;8.50;;;4.60;;
8665;SDS011;4370;48.916;8.380;2022-11-20T03:45:54;6.73;;;4.30;;
8665;SDS011;4370;48.916;8.380;2022-11-20T03:48:20;9.63;;;4.67;;
8665;SDS011;4370;48.916;8.380;2022-11-20T03:50:45;6.80;;;4.70;;
8665;SDS011;4370;48.916;8.380;2022-11-20T03:53:14;6.47;;;5.00;;
8665;SDS011;4370;48.916;8.380;2022-11-20T03:55:40;6.20;;;4.43;;
8665;SDS011;4370;48.916;8.380;2022-11-20T03:58:06;6.17;;;4.40;;
8665;SDS011;4370;48.916;8.380;2022-11-20T04:00:32;5.93;;;4.83;;
8665;SDS011;4370;48.916;8.380;2022-11-20T04:02:58;6.73;;;4.17;;
8665;SDS011;4370;48.916;8.380;2022-11-20T04:05:25;7.40;;;4.43;;
8665;SDS011;4370;48.916;8.380;2022-11-20T04:07:50;7.53;;;4.30;;
8665;SDS011;4370;48.916;8.380;2022-11-20T04:10:16;7.87;;;5.00;;
8665;SDS011;4370;48.916;8.380;2022-11-20T04:12:42;6.87;;;4.60;;
8665;SDS011;4370;48.916;8.380;2022-11-20T04:15:08;10.33;;;5.17;;
8665;SDS011;4370;48.916;8.380;2022-11-20T04:17:34;7.10;;;4.97;;
8665;SDS011;4370;48.916;8.380;2022-11-20T04:20:00;5.70;;;4.60;;
8665;SDS011;4370;48.916;8.380;2022-11-20T04:22:26;7.20;;;4.70;;
8665;SDS011;4370;48.916;8.380;2022-11-20T04:24:52;7.00;;;4.40;;
8665;SDS011;4370;48.916;8.380;2022-11-20T04:27:18;7.87;;;4.93;;
8665;SDS011;4370;48.916;8.380;2022-11-20T04:29:44;5.80;;;4.50;;
8665;SDS011;4370;48.916;8.380;2022-11-20T04:32:10;6.60;;;4.73;;
8665;SDS011;4370;48.916;8.380;2022-11-20T04:34:36;5.90;;;4.47;;
8665;SDS011;4370;48.916;8.380;2022-11-20T04:37:02;7.07;;;4.57;;
8665;SDS011;4370;48.916;8.380;2022-11-20T04:39:28;5.07;;;4.37;;
8665;SDS011;4370;48.916;8.380;2022-11-20T04:41:54;5.33;;;4.73;;
8665;SDS011;4370;48.916;8.380;2022-11-20T04:44:39;6.03;;;4.23;;
8665;SDS011;4370;48.916;8.380;2022-11-20T04:47:05;5.70;;;4.20;;
8665;SDS011;4370;48.916;8.380;2022-11-20T04:49:32;5.33;;;4.13;;
8665;SDS011;4370;48.916;8.380;2022-11-20T04:52:22;4.60;;;4.00;;
8665;SDS011;4370;48.916;8.380;2022-11-20T04:54:55;5.33;;;4.30;;
8665;SDS011;4370;48.916;8.380;2022-11-20T04:57:24;6.40;;;4.47;;
8665;SDS011;4370;48.916;8.380;2022-11-20T04:59:50;7.07;;;4.37;;
8665;SDS011;4370;48.916;8.380;2022-11-20T05:02:16;5.00;;;4.20;;
8665;SDS011;4370;48.916;8.380;2022-11-20T05:04:42;7.63;;;4.30;;
8665;SDS011;4370;48.916;8.380;2022-11-20T05:07:08;5.50;;;3.77;;
8665;SDS011;4370;48.916;8.380;2022-11-20T05:09:34;5.60;;;3.73;;
8665;SDS011;4370;48.916;8.380;2022-11-20T05:12:00;5.67;;;3.63;;
8665;SDS011;4370;48.916;8.380;2022-11-20T05:14:26;5.40;;;3.70;;
8665;SDS011;4370;48.916;8.380;2022-11-20T05:16:52;4.30;;;3.27;;
8665;SDS011;4370;48.916;8.380;2022-11-20T05:19:18;4.20;;;3.40;;
8665;SDS011;4370;48.916;8.380;2022-11-20T05:21:44;5.73;;;3.10;;
8665;SDS011;4370;48.916;8.380;2022-11-20T05:24:09;6.87;;;3.50;;
8665;SDS011;4370;48.916;8.380;2022-11-20T05:26:35;4.47;;;3.20;;
8665;SDS011;4370;48.916;8.380;2022-11-20T05:29:01;5.60;;;2.60;;
8665;SDS011;4370;48.916;8.380;2022-11-20T05:31:27;3.20;;;2.90;;
8665;SDS011;4370;48.916;8.380;2022-11-20T05:33:53;4.00;;;2.90;;
8665;SDS011;4370;48.916;8.380;2022-11-20T05:36:19;2.73;;;2.50;;
8665;SDS011;4370;48.916;8.380;2022-11-20T05:38:45;3.33;;;2.63;;
8665;SDS011;4370;48.916;8.380;2022-11-20T05:41:12;3.17;;;2.40;;
8665;SDS011;4370;48.916;8.380;2022-11-20T05:43:40;3.90;;;2.67;;
8665;SDS011;4370;48.916;8.380;2022-11-20T05:46:07;3.37;;;2.60;;
8665;SDS011;4370;48.916;8.380;2022-11-20T05:48:34;4.33;;;2.90;;
8665;SDS011;4370;48.916;8.380;2022-11-20T05:51:01;2.80;;;2.43;;
8665;SDS011;4370;48.916;8.380;2022-11-20T05:53:28;3.13;;;2.30;;
8665;SDS011;4370;48.916;8.380;2022-11-20T05:55:57;3.63;;;2.60;;
8665;SDS011;4370;48.916;8.380;2022-11-20T05:58:23;4.87;;;2.90;;
8665;SDS011;4370;48.916;8.380;2022-11-20T06:00:49;5.00;;;2.77;;
8665;SDS011;4370;48.916;8.380;2022-11-20T06:03:15;4.80;;;3.00;;
8665;SDS011;4370;48.916;8.380;2022-11-20T06:05:41;3.50;;;2.70;;
8665;SDS011;4370;48.916;8.380;2022-11-20T06:08:06;3.73;;;2.77;;
8665;SDS011;4370;48.916;8.380;2022-11-20T06:10:32;4.00;;;2.47;;
8665;SDS011;4370;48.916;8.380;2022-11-20T06:12:58;3.07;;;2.60;;
8665;SDS011;4370;48.916;8.380;2022-11-20T06:15:24;2.83;;;2.53;;
8665;SDS011;4370;48.916;8.380;2022-11-20T06:17:53;4.40;;;2.97;;
8665;SDS011;4370;48.916;8.380;2022-11-20T06:20:20;3.80;;;2.60;;
8665;SDS011;4370;48.916;8.380;2022-11-20T06:22:46;3.80;;;2.90;;
8665;SDS011;4370;48.916;8.380;2022-11-20T06:25:12;4.37;;;2.50;;
8665;SDS011;4370;48.916;8.380;2022-11-20T06:27:38;4.17;;;2.93;;
8665;SDS011;4370;48.916;8.380;2022-11-20T06:30:04;3.20;;;2.60;;
8665;SDS011;4370;48.916;8.380;2022-11-20T06:32:30;4.93;;;2.87;;
8665;SDS011;4370;48.916;8.380;2022-11-20T06:34:56;3.20;;;2.80;;
8665;SDS011;4370;48.916;8.380;2022-11-20T06:37:22;5.97;;;2.90;;
8665;SDS011;4370;48.916;8.380;2022-11-20T06:39:48;4.43;;;2.60;;
8665;SDS011;4370;48.916;8.380;2022-11-20T06:42:13;3.87;;;2.77;;
8665;SDS011;4370;48.916;8.380;2022-11-20T06:44:39;3.20;;;2.53;;
8665;SDS011;4370;48.916;8.380;2022-11-20T06:47:05;4.97;;;2.87;;
8665;SDS011;4370;48.916;8.380;2022-11-20T06:49:31;4.23;;;2.70;;
8665;SDS011;4370;48.916;8.380;2022-11-20T06:51:59;2.93;;;2.47;;
8665;SDS011;4370;48.916;8.380;2022-11-20T06:54:25;5.13;;;2.30;;
8665;SDS011;4370;48.916;8.380;2022-11-20T06:56:51;3.67;;;2.30;;
8665;SDS011;4370;48.916;8.380;2022-11-20T06:59:16;2.93;;;1.87;;
8665;SDS011;4370;48.916;8.380;2022-11-20T07:01:42;3.07;;;2.20;;
8665;SDS011;4370;48.916;8.380;2022-11-20T07:04:08;4.33;;;2.17;;
8665;SDS011;4370;48.916;8.380;2022-11-20T07:06:34;2.93;;;2.00;;
8665;SDS011;4370;48.916;8.380;2022-11-20T07:09:00;2.00;;;1.73;;
8665;SDS011;4370;48.916;8.380;2022-11-20T07:11:26;2.00;;;1.80;;
8665;SDS011;4370;48.916;8.380;2022-11-20T07:13:52;3.03;;;1.93;;
8665;SDS011;4370;48.916;8.380;2022-11-20T07:16:18;3.07;;;1.70;;
8665;SDS011;4370;48.916;8.380;2022-11-20T07:18:44;1.80;;;1.70;;
8665;SDS011;4370;48.916;8.380;2022-11-20T07:21:10;2.40;;;1.90;;
8665;SDS011;4370;48.916;8.380;2022-11-20T07:23:36;2.10;;;1.80;;
8665;SDS011;4370;48.916;8.380;2022-11-20T07:26:10;4.00;;;2.10;;
8665;SDS011;4370;48.916;8.380;2022-11-20T07:28:36;3.13;;;1.90;;
8665;SDS011;4370;48.916;8.380;2022-11-20T07:31:02;2.73;;;2.10;;
8665;SDS011;4370;48.916;8.380;2022-11-20T07:33:29;4.40;;;2.03;;
8665;SDS011;4370;48.916;8.380;2022-11-20T07:35:55;1.73;;;1.60;;
8665;SDS011;4370;48.916;8.380;2022-11-20T07:38:21;3.10;;;1.90;;
8665;SDS011;4370;48.916;8.380;2022-11-20T07:40:47;2.40;;;1.90;;
8665;SDS011;4370;48.916;8.380;2022-11-20T07:43:13;2.30;;;1.87;;
8665;SDS011;4370;48.916;8.380;2022-11-20T07:45:39;3.67;;;2.10;;
8665;SDS011;4370;48.916;8.380;2022-11-20T07:48:05;2.10;;;1.90;;
8665;SDS011;4370;48.916;8.380;2022-11-20T07:50:31;3.07;;;2.30;;
8665;SDS011;4370;48.916;8.380;2022-11-20T07:53:03;2.80;;;2.20;;
8665;SDS011;4370;48.916;8.380;2022-11-20T07:55:30;4.13;;;2.37;;
8665;SDS011;4370;48.916;8.380;2022-11-20T07:57:56;3.00;;;2.30;;
8665;SDS011;4370;48.916;8.380;2022-11-20T08:00:22;2.63;;;2.27;;
8665;SDS011;4370;48.916;8.380;2022-11-20T08:02:48;2.50;;;2.00;;
8665;SDS011;4370;48.916;8.380;2022-11-20T08:05:14;4.00;;;2.10;;
8665;SDS011;4370;48.916;8.380;2022-11-20T08:07:40;4.17;;;2.20;;
8665;SDS011;4370;48.916;8.380;2022-11-20T08:10:07;4.20;;;2.07;;
8665;SDS011;4370;48.916;8.380;2022-11-20T08:12:35;3.80;;;2.10;;
8665;SDS011;4370;48.916;8.380;2022-11-20T08:15:19;2.30;;;2.00;;
8665;SDS011;4370;48.916;8.380;2022-11-20T08:17:45;2.87;;;2.30;;
8665;SDS011;4370;48.916;8.380;2022-11-20T08:20:11;3.27;;;2.03;;
8665;SDS011;4370;48.916;8.380;2022-11-20T08:22:37;2.30;;;2.10;;
8665;SDS011;4370;48.916;8.380;2022-11-20T08:25:03;3.50;;;2.23;;
8665;SDS011;4370;48.916;8.380;2022-11-20T08:27:31;4.27;;;2.23;;
8665;SDS011;4370;48.916;8.380;2022-11-20T08:29:57;2.40;;;2.13;;
8665;SDS011;4370;48.916;8.380;2022-11-20T08:32:22;2.70;;;2.10;;
8665;SDS011;4370;48.916;8.380;2022-11-20T08:34:48;3.00;;;2.33;;
8665;SDS011;4370;48.916;8.380;2022-11-20T08:37:14;2.10;;;1.90;;
8665;SDS011;4370;48.916;8.380;2022-11-20T08:39:40;2.83;;;2.10;;
8665;SDS011;4370;48.916;8.380;2022-11-20T08:42:06;3.37;;;2.30;;
8665;SDS011;4370;48.916;8.380;2022-11-20T08:44:33;4.13;;;2.60;;
8665;SDS011;4370;48.916;8.380;2022-11-20T08:46:59;5.80;;;2.70;;
8665;SDS011;4370;48.916;8.380;2022-11-20T08:49:25;3.47;;;2.50;;
8665;SDS011;4370;48.916;8.380;2022-11-20T08:51:51;3.63;;;2.67;;
8665;SDS011;4370;48.916;8.380;2022-11-20T08:54:19;3.33;;;2.60;;
8665;SDS011;4370;48.916;8.380;2022-11-20T08:56:47;5.83;;;2.57;;
8665;SDS011;4370;48.916;8.380;2022-11-20T08:59:13;5.07;;;2.80;;
8665;SDS011;4370;48.916;8.380;2022-11-20T09:01:39;3.13;;;2.60;;
8665;SDS011;4370;48.916;8.380;2022-11-20T09:04:05;3.90;;;2.80;;
8665;SDS011;4370;48.916;8.380;2022-11-20T09:06:31;4.67;;;2.50;;
8665;SDS011;4370;48.916;8.380;2022-11-20T09:08:57;6.60;;;2.80;;
8665;SDS011;4370;48.916;8.380;2022-11-20T09:11:23;3.47;;;3.00;;
8665;SDS011;4370;48.916;8.380;2022-11-20T09:13:49;4.23;;;2.93;;
8665;SDS011;4370;48.916;8.380;2022-11-20T09:16:15;4.27;;;3.10;;
8665;SDS011;4370;48.916;8.380;2022-11-20T09:18:41;5.37;;;3.17;;
8665;SDS011;4370;48.916;8.380;2022-11-20T09:21:09;6.20;;;3.70;;
8665;SDS011;4370;48.916;8.380;2022-11-20T09:23:36;3.50;;;3.00;;
8665;SDS011;4370;48.916;8.380;2022-11-20T09:26:06;4.40;;;3.47;;
8665;SDS011;4370;48.916;8.380;2022-11-20T09:28:35;4.93;;;3.40;;
8665;SDS011;4370;48.916;8.380;2022-11-20T09:31:04;5.10;;;3.43;;
8665;SDS011;4370;48.916;8.380;2022-11-20T09:33:31;4.20;;;2.90;;
8665;SDS011;4370;48.916;8.380;2022-11-20T09:35:57;4.53;;;3.40;;
8665;SDS011;4370;48.916;8.380;2022-11-20T09:38:23;7.20;;;3.17;;
8665;SDS011;4370;48.916;8.380;2022-11-20T09:41:01;4.43;;;3.30;;
8665;SDS011;4370;48.916;8.380;2022-11-20T09:51:29;4.83;;;3.33;;
8665;SDS011;4370;48.916;8.380;2022-11-20T09:54:17;4.47;;;3.40;;
8665;SDS011;4370;48.916;8.380;2022-11-20T09:56:54;5.73;;;3.50;;
8665;SDS011;4370;48.916;8.380;2022-11-20T09:59:27;5.97;;;3.50;;
8665;SDS011;4370;48.916;8.380;2022-11-20T10:02:00;6.87;;;4.17;;
8665;SDS011;4370;48.916;8.380;2022-11-20T10:04:27;5.97;;;3.67;;
8665;SDS011;4370;48.916;8.380;2022-11-20T10:07:00;6.53;;;3.50;;
8665;SDS011;4370;48.916;8.380;2022-11-20T10:09:35;4.83;;;3.67;;
8665;SDS011;4370;48.916;8.380;2022-11-20T10:14:38;5.60;;;4.00;;
8665;SDS011;4370;48.916;8.380;2022-11-20T10:22:16;5.43;;;3.80;;
8665;SDS011;4370;48.916;8.380;2022-11-20T10:30:23;7.47;;;3.53;;
8665;SDS011;4370;48.916;8.380;2022-11-20T10:35:50;5.73;;;3.53;;
8665;SDS011;4370;48.916;8.380;2022-11-20T10:38:31;7.93;;;3.87;;
8665;SDS011;4370;48.916;8.380;2022-11-20T10:41:04;4.93;;;3.70;;
8665;SDS011;4370;48.916;8.380;2022-11-20T10:43:50;7.73;;;4.10;;
8665;SDS011;4370;48.916;8.380;2022-11-20T10:46:29;6.27;;;3.67;;
8665;SDS011;4370;48.916;8.380;2022-11-20T10:49:02;5.00;;;3.70;;
8665;SDS011;4370;48.916;8.380;2022-11-20T11:00:19;5.03;;;2.90;;
8665;SDS011;4370;48.916;8.380;2022-11-20T11:02:49;3.27;;;2.80;;
8665;SDS011;4370;48.916;8.380;2022-11-20T11:08:15;5.53;;;2.80;;
8665;SDS011;4370;48.916;8.380;2022-11-20T11:10:52;3.33;;;2.50;;
8665;SDS011;4370;48.916;8.380;2022-11-20T11:13:22;5.70;;;3.03;;
8665;SDS011;4370;48.916;8.380;2022-11-20T11:15:50;4.70;;;2.97;;
8665;SDS011;4370;48.916;8.380;2022-11-20T11:18:29;3.77;;;2.70;;
8665;SDS011;4370;48.916;8.380;2022-11-20T11:20:57;3.77;;;2.90;;
8665;SDS011;4370;48.916;8.380;2022-11-20T11:23:36;5.60;;;3.00;;
8665;SDS011;4370;48.916;8.380;2022-11-20T11:26:05;5.13;;;3.13;;
8665;SDS011;4370;48.916;8.380;2022-11-20T11:28:42;4.67;;;2.80;;
8665;SDS011;4370;48.916;8.380;2022-11-20T11:31:50;3.50;;;2.83;;
8665;SDS011;4370;48.916;8.380;2022-11-20T11:34:19;5.07;;;3.10;;
8665;SDS011;4370;48.916;8.380;2022-11-20T11:37:00;3.87;;;2.80;;
8665;SDS011;4370;48.916;8.380;2022-11-20T11:39:27;6.20;;;2.90;;
8665;SDS011;4370;48.916;8.380;2022-11-20T11:45:00;4.47;;;3.10;;
8665;SDS011;4370;48.916;8.380;2022-11-20T11:47:38;4.20;;;2.63;;
8665;SDS011;4370;48.916;8.380;2022-11-20T11:50:25;4.03;;;2.97;;
8665;SDS011;4370;48.916;8.380;2022-11-20T11:53:23;4.73;;;2.93;;
8665;SDS011;4370;48.916;8.380;2022-11-20T11:58:32;4.47;;;2.57;;
8665;SDS011;4370;48.916;8.380;2022-11-20T12:04:17;5.83;;;2.70;;
8665;SDS011;4370;48.916;8.380;2022-11-20T12:07:20;5.07;;;2.87;;
8665;SDS011;4370;48.916;8.380;2022-11-20T12:09:51;7.57;;;2.20;;
8665;SDS011;4370;48.916;8.380;2022-11-20T12:12:20;5.27;;;2.37;;
8665;SDS011;4370;48.916;8.380;2022-11-20T12:14:51;3.47;;;2.40;;
8665;SDS011;4370;48.916;8.380;2022-11-20T12:17:19;3.13;;;2.17;;
8665;SDS011;4370;48.916;8.380;2022-11-20T12:19:45;4.80;;;2.67;;
8665;SDS011;4370;48.916;8.380;2022-11-20T12:25:20;6.90;;;2.60;;
8665;SDS011;4370;48.916;8.380;2022-11-20T12:30:27;3.83;;;2.23;;
8665;SDS011;4370;48.916;8.380;2022-11-20T12:43:37;4.90;;;1.63;;
8665;SDS011;4370;48.916;8.380;2022-11-20T12:49:09;6.20;;;1.80;;
8665;SDS011;4370;48.916;8.380;2022-11-20T12:57:09;5.47;;;1.70;;
8665;SDS011;4370;48.916;8.380;2022-11-20T13:02:35;6.50;;;1.60;;
8665;SDS011;4370;48.916;8.380;2022-11-20T13:08:01;4.30;;;1.50;;
8665;SDS011;4370;48.916;8.380;2022-11-20T13:10:32;2.93;;;1.60;;
8665;SDS011;4370;48.916;8.380;2022-11-20T13:13:14;4.43;;;1.47;;
8665;SDS011;4370;48.916;8.380;2022-11-20T13:18:39;3.20;;;1.50;;
8665;SDS011;4370;48.916;8.380;2022-11-20T13:21:41;4.53;;;1.80;;
8665;SDS011;4370;48.916;8.380;2022-11-20T13:24:07;1.53;;;1.43;;
8665;SDS011;4370;48.916;8.380;2022-11-20T13:26:46;3.53;;;1.43;;
8665;SDS011;4370;48.916;8.380;2022-11-20T13:29:16;2.90;;;1.33;;
8665;SDS011;4370;48.916;8.380;2022-11-20T13:31:44;3.53;;;1.47;;
8665;SDS011;4370;48.916;8.380;2022-11-20T13:34:23;2.10;;;1.47;;
8665;SDS011;4370;48.916;8.380;2022-11-20T13:36:51;4.43;;;1.23;;
8665;SDS011;4370;48.916;8.380;2022-11-20T13:44:43;3.83;;;1.40;;
8665;SDS011;4370;48.916;8.380;2022-11-20T13:47:23;2.87;;;1.80;;
8665;SDS011;4370;48.916;8.380;2022-11-20T13:49:53;3.73;;;1.63;;
8665;SDS011;4370;48.916;8.380;2022-11-20T14:00:18;4.33;;;1.43;;
8665;SDS011;4370;48.916;8.380;2022-11-20T14:02:58;3.30;;;1.23;;
8665;SDS011;4370;48.916;8.380;2022-11-20T14:05:36;1.60;;;1.30;;
8665;SDS011;4370;48.916;8.380;2022-11-20T14:08:13;4.63;;;1.60;;
8665;SDS011;4370;48.916;8.380;2022-11-20T14:10:48;2.27;;;1.30;;
8665;SDS011;4370;48.916;8.380;2022-11-20T14:13:17;1.73;;;1.30;;
8665;SDS011;4370;48.916;8.380;2022-11-20T14:15:44;2.43;;;1.50;;
8665;SDS011;4370;48.916;8.380;2022-11-20T14:18:11;3.77;;;1.57;;
8665;SDS011;4370;48.916;8.380;2022-11-20T14:20:39;3.23;;;1.23;;
8665;SDS011;4370;48.916;8.380;2022-11-20T14:25:35;2.93;;;1.60;;
8665;SDS011;4370;48.916;8.380;2022-11-20T14:28:01;3.03;;;1.20;;
8665;SDS011;4370;48.916;8.380;2022-11-20T14:30:29;3.40;;;1.77;;
8665;SDS011;4370;48.916;8.380;2022-11-20T14:33:12;5.50;;;1.80;;
8665;SDS011;4370;48.916;8.380;2022-11-20T14:35:48;3.10;;;1.70;;
8665;SDS011;4370;48.916;8.380;2022-11-20T14:38:24;5.13;;;1.60;;
8665;SDS011;4370;48.916;8.380;2022-11-20T14:40:51;3.30;;;1.77;;
8665;SDS011;4370;48.916;8.380;2022-11-20T14:43:22;4.13;;;1.60;;
8665;SDS011;4370;48.916;8.380;2022-11-20T14:51:10;6.60;;;2.10;;
8665;SDS011;4370;48.916;8.380;2022-11-20T14:53:47;4.60;;;2.00;;
8665;SDS011;4370;48.916;8.380;2022-11-20T14:56:13;3.00;;;1.83;;
8665;SDS011;4370;48.916;8.380;2022-11-20T14:58:54;3.37;;;1.60;;
8665;SDS011;4370;48.916;8.380;2022-11-20T15:01:25;3.43;;;1.70;;
8665;SDS011;4370;48.916;8.380;2022-11-20T15:06:31;6.77;;;1.90;;
8665;SDS011;4370;48.916;8.380;2022-11-20T15:08:57;2.53;;;1.70;;
8665;SDS011;4370;48.916;8.380;2022-11-20T15:11:27;4.10;;;1.90;;
8665;SDS011;4370;48.916;8.380;2022-11-20T15:13:55;3.50;;;1.70;;
8665;SDS011;4370;48.916;8.380;2022-11-20T15:16:21;6.67;;;2.13;;
8665;SDS011;4370;48.916;8.380;2022-11-20T15:18:49;2.90;;;1.70;;
8665;SDS011;4370;48.916;8.380;2022-11-20T15:21:17;6.17;;;2.13;;
8665;SDS011;4370;48.916;8.380;2022-11-20T15:23:43;4.27;;;2.10;;
8665;SDS011;4370;48.916;8.380;2022-11-20T15:26:10;3.93;;;2.00;;
8665;SDS011;4370;48.916;8.380;2022-11-20T15:28:41;3.60;;;2.27;;
8665;SDS011;4370;48.916;8.380;2022-11-20T15:31:11;4.53;;;2.28;;
8665;SDS011;4370;48.916;8.380;2022-11-20T15:33:38;4.30;;;2.80;;
8665;SDS011;4370;48.916;8.380;2022-11-20T15:36:04;4.57;;;2.83;;
8665;SDS011;4370;48.916;8.380;2022-11-20T15:38:30;6.47;;;3.57;;
8665;SDS011;4370;48.916;8.380;2022-11-20T15:40:56;3.53;;;2.63;;
8665;SDS011;4370;48.916;8.380;2022-11-20T15:43:22;4.77;;;2.70;;
8665;SDS011;4370;48.916;8.380;2022-11-20T15:45:53;4.70;;;2.37;;
8665;SDS011;4370;48.916;8.380;2022-11-20T15:48:31;3.93;;;2.50;;
8665;SDS011;4370;48.916;8.380;2022-11-20T15:51:12;4.23;;;2.00;;
8665;SDS011;4370;48.916;8.380;2022-11-20T15:53:49;2.67;;;1.90;;
8665;SDS011;4370;48.916;8.380;2022-11-20T15:56:14;2.10;;;1.80;;
8665;SDS011;4370;48.916;8.380;2022-11-20T15:58:41;3.47;;;1.90;;
8665;SDS011;4370;48.916;8.380;2022-11-20T16:01:14;4.67;;;2.10;;
8665;SDS011;4370;48.916;8.380;2022-11-20T16:03:41;3.07;;;1.90;;
8665;SDS011;4370;48.916;8.380;2022-11-20T16:06:07;2.77;;;2.10;;
8665;SDS011;4370;48.916;8.380;2022-11-20T16:08:33;4.97;;;2.40;;
8665;SDS011;4370;48.916;8.380;2022-11-20T16:10:59;2.83;;;2.07;;
8665;SDS011;4370;48.916;8.380;2022-11-20T16:13:25;15.40;;;8.47;;
8665;SDS011;4370;48.916;8.380;2022-11-20T16:16:14;9.83;;;6.07;;
8665;SDS011;4370;48.916;8.380;2022-11-20T16:18:47;10.23;;;5.70;;
8665;SDS011;4370;48.916;8.380;2022-11-20T16:21:13;8.10;;;4.50;;
8665;SDS011;4370;48.916;8.380;2022-11-20T16:23:39;5.97;;;3.93;;
8665;SDS011;4370;48.916;8.380;2022-11-20T16:26:09;4.63;;;3.77;;
8665;SDS011;4370;48.916;8.380;2022-11-20T16:28:39;6.27;;;3.80;;
8665;SDS011;4370;48.916;8.380;2022-11-20T16:31:12;5.50;;;3.37;;
8665;SDS011;4370;48.916;8.380;2022-11-20T16:33:42;4.87;;;3.43;;
8665;SDS011;4370;48.916;8.380;2022-11-20T16:36:13;4.53;;;3.40;;
8665;SDS011;4370;48.916;8.380;2022-11-20T16:38:41;6.03;;;3.70;;
8665;SDS011;4370;48.916;8.380;2022-11-20T16:41:07;4.53;;;2.87;;
8665;SDS011;4370;48.916;8.380;2022-11-20T16:43:55;4.23;;;3.13;;
8665;SDS011;4370;48.916;8.380;2022-11-20T16:46:23;4.40;;;2.97;;
8665;SDS011;4370;48.916;8.380;2022-11-20T16:48:53;4.43;;;2.83;;
8665;SDS011;4370;48.916;8.380;2022-11-20T16:51:24;4.47;;;2.73;;
8665;SDS011;4370;48.916;8.380;2022-11-20T16:53:50;5.87;;;3.00;;
8665;SDS011;4370;48.916;8.380;2022-11-20T16:56:18;5.90;;;3.83;;
8665;SDS011;4370;48.916;8.380;2022-11-20T16:58:45;5.80;;;4.23;;
8665;SDS011;4370;48.916;8.380;2022-11-20T17:01:13;7.77;;;4.00;;
8665;SDS011;4370;48.916;8.380;2022-11-20T17:03:41;5.77;;;3.60;;
8665;SDS011;4370;48.916;8.380;2022-11-20T17:06:16;8.17;;;4.87;;
8665;SDS011;4370;48.916;8.380;2022-11-20T17:08:43;8.00;;;4.47;;
8665;SDS011;4370;48.916;8.380;2022-11-20T17:11:10;12.17;;;5.67;;
8665;SDS011;4370;48.916;8.380;2022-11-20T17:13:37;11.57;;;5.70;;
8665;SDS011;4370;48.916;8.380;2022-11-20T17:16:07;11.60;;;5.77;;
8665;SDS011;4370;48.916;8.380;2022-11-20T17:18:34;6.23;;;4.27;;
8665;SDS011;4370;48.916;8.380;2022-11-20T17:21:01;6.83;;;4.07;;